createdAt,value
2017-09-14T00:00:34.931Z,14.27
2017-09-14T00:01:34.929Z,14.20
2017-09-14T00:02:34.928Z,14.27
2017-09-14T00:03:34.927Z,14.23
2017-09-14T00:04:34.918Z,14.30
2017-09-14T00:05:34.916Z,14.34
2017-09-14T00:06:34.918Z,14.30
2017-09-14T00:07:34.911Z,14.31
2017-09-14T00:08:34.908Z,14.31
2017-09-14T00:09:34.906Z,14.29
2017-09-14T00:10:34.903Z,14.20
2017-09-14T00:11:34.900Z,14.24
2017-09-14T00:12:34.901Z,14.27
2017-09-14T00:13:34.930Z,14.16
2017-09-14T00:14:34.897Z,14.11
2017-09-14T00:15:34.894Z,14.12
2017-09-14T00:16:34.887Z,14.06
2017-09-14T00:17:34.884Z,14.13
2017-09-14T00:18:34.882Z,14.02
2017-09-14T00:19:34.879Z,13.99
2017-09-14T00:20:34.881Z,13.99
2017-09-14T00:21:34.877Z,14.01
2017-09-14T00:22:34.875Z,14.01
2017-09-14T00:23:34.876Z,13.93
2017-09-14T00:24:34.869Z,13.93
2017-09-14T00:25:34.867Z,13.99
2017-09-14T00:26:34.865Z,13.98
2017-09-14T00:27:34.862Z,13.96
2017-09-14T00:28:34.855Z,13.91
2017-09-14T00:29:34.853Z,13.98
2017-09-14T00:30:34.850Z,13.86
2017-09-14T00:31:34.848Z,13.88
2017-09-14T00:32:34.844Z,13.80
2017-09-14T00:33:34.840Z,13.86
2017-09-14T00:34:34.839Z,13.88
2017-09-14T00:35:34.834Z,13.76
2017-09-14T00:36:34.837Z,13.81
2017-09-14T00:37:34.833Z,13.81
2017-09-14T00:38:34.832Z,13.75
2017-09-14T00:39:34.827Z,13.76
2017-09-14T00:40:34.825Z,13.73
2017-09-14T00:41:34.822Z,13.79
2017-09-14T00:42:34.819Z,13.76
2017-09-14T00:43:34.815Z,13.76
2017-09-14T00:44:34.807Z,13.75
2017-09-14T00:45:34.805Z,13.80
2017-09-14T00:46:34.802Z,13.72
2017-09-14T00:47:34.800Z,13.81
2017-09-14T00:48:34.798Z,13.59
2017-09-14T00:49:34.793Z,13.66
2017-09-14T00:50:34.791Z,13.62
2017-09-14T00:51:34.785Z,13.69
2017-09-14T00:52:34.787Z,13.61
2017-09-14T00:53:34.786Z,13.61
2017-09-14T00:54:34.782Z,13.66
2017-09-14T00:55:34.779Z,13.62
2017-09-14T00:56:34.775Z,13.54
2017-09-14T00:57:34.771Z,13.53
2017-09-14T00:58:34.770Z,13.50
2017-09-14T00:59:34.765Z,13.53
2017-09-14T01:00:34.759Z,13.51
2017-09-14T01:01:34.756Z,13.43
2017-09-14T01:02:34.752Z,13.53
2017-09-14T01:03:34.749Z,13.48
2017-09-14T01:04:34.745Z,13.51
2017-09-14T01:05:34.743Z,13.51
2017-09-14T01:06:34.739Z,13.51
2017-09-14T01:07:34.736Z,13.48
2017-09-14T01:08:34.737Z,13.50
2017-09-14T01:09:34.739Z,13.48
2017-09-14T01:10:34.732Z,13.43
2017-09-14T01:11:34.728Z,13.41
2017-09-14T01:12:34.725Z,13.39
2017-09-14T01:13:34.723Z,13.25
2017-09-14T01:14:34.720Z,13.24
2017-09-14T01:15:34.714Z,13.29
2017-09-14T01:16:34.709Z,13.29
2017-09-14T01:17:34.704Z,13.29
2017-09-14T01:18:34.702Z,13.25
2017-09-14T01:19:34.698Z,13.27
2017-09-14T01:20:34.699Z,13.16
2017-09-14T01:21:34.697Z,13.10
2017-09-14T01:22:34.693Z,13.14
2017-09-14T01:23:34.689Z,13.21
2017-09-14T01:24:34.682Z,13.09
2017-09-14T01:25:34.680Z,13.13
2017-09-14T01:26:34.679Z,13.12
2017-09-14T01:27:34.675Z,13.06
2017-09-14T01:28:34.668Z,13.12
2017-09-14T01:29:34.666Z,13.13
2017-09-14T01:30:34.663Z,13.09
2017-09-14T01:31:34.658Z,13.13
2017-09-14T01:32:34.659Z,13.12
2017-09-14T01:33:34.657Z,13.10
2017-09-14T01:34:34.653Z,13.14
2017-09-14T01:35:34.650Z,13.13
2017-09-14T01:36:34.646Z,13.12
2017-09-14T01:37:34.643Z,13.19
2017-09-14T01:38:34.638Z,13.17
2017-09-14T01:39:34.635Z,13.10
2017-09-14T01:40:34.628Z,13.16
2017-09-14T01:41:34.626Z,13.13
2017-09-14T01:42:34.622Z,13.27
2017-09-14T01:43:34.618Z,13.29
2017-09-14T01:44:34.615Z,13.27
2017-09-14T01:45:34.612Z,13.24
2017-09-14T01:46:34.607Z,13.21
2017-09-14T01:47:34.606Z,13.16
2017-09-14T01:48:34.604Z,13.14
2017-09-14T01:49:34.601Z,13.16
2017-09-14T01:50:34.598Z,13.12
2017-09-14T01:51:34.596Z,13.10
2017-09-14T01:52:34.591Z,13.09
2017-09-14T01:53:34.588Z,13.17
2017-09-14T01:54:34.586Z,13.06
2017-09-14T01:55:34.582Z,13.13
2017-09-14T01:56:34.573Z,13.10
2017-09-14T01:57:34.570Z,13.13
2017-09-14T01:58:34.567Z,13.09
2017-09-14T01:59:34.563Z,13.10
2017-09-14T02:00:34.560Z,13.13
2017-09-14T02:01:34.562Z,13.06
2017-09-14T02:02:34.553Z,13.04
2017-09-14T02:03:34.549Z,13.03
2017-09-14T02:04:34.550Z,13.01
2017-09-14T02:05:34.547Z,13.07
2017-09-14T02:06:34.543Z,13.06
2017-09-14T02:07:34.538Z,13.09
2017-09-14T02:08:34.536Z,13.01
2017-09-14T02:09:34.534Z,12.99
2017-09-14T02:10:34.528Z,12.99
2017-09-14T02:11:34.524Z,12.98
2017-09-14T02:12:34.517Z,12.92
2017-09-14T02:13:34.514Z,13.01
2017-09-14T02:14:34.511Z,12.98
2017-09-14T02:15:34.507Z,12.96
2017-09-14T02:16:34.503Z,12.95
2017-09-14T02:17:34.499Z,12.94
2017-09-14T02:18:34.495Z,12.94
2017-09-14T02:19:34.490Z,12.89
2017-09-14T02:20:34.497Z,12.91
2017-09-14T02:21:34.489Z,12.89
2017-09-14T02:22:34.486Z,12.88
2017-09-14T02:23:34.481Z,12.88
2017-09-14T02:24:34.473Z,12.91
2017-09-14T02:25:34.469Z,12.88
2017-09-14T02:26:34.466Z,12.91
2017-09-14T02:27:34.461Z,12.91
2017-09-14T02:28:34.463Z,12.88
2017-09-14T02:29:34.459Z,12.91
2017-09-14T02:30:34.456Z,12.87
2017-09-14T02:31:34.452Z,12.92
2017-09-14T02:32:34.445Z,12.92
2017-09-14T02:33:34.443Z,12.95
2017-09-14T02:34:34.440Z,12.96
2017-09-14T02:35:34.435Z,12.94
2017-09-14T02:36:34.428Z,12.94
2017-09-14T02:37:34.424Z,12.98
2017-09-14T02:38:34.423Z,12.98
2017-09-14T02:39:34.416Z,13.01
2017-09-14T02:40:34.414Z,13.03
2017-09-14T02:41:34.412Z,13.04
2017-09-14T02:42:34.406Z,13.09
2017-09-14T02:43:34.403Z,13.14
2017-09-14T02:44:34.404Z,13.12
2017-09-14T02:45:34.401Z,13.10
2017-09-14T02:46:34.397Z,13.09
2017-09-14T02:47:34.393Z,13.10
2017-09-14T02:48:34.390Z,13.16
2017-09-14T02:49:34.387Z,13.10
2017-09-14T02:50:34.387Z,13.06
2017-09-14T02:51:34.378Z,13.09
2017-09-14T02:52:34.370Z,13.13
2017-09-14T02:53:34.367Z,13.17
2017-09-14T02:54:34.365Z,13.17
2017-09-14T02:55:34.360Z,13.14
2017-09-14T02:56:34.356Z,13.25
2017-09-14T02:57:34.353Z,13.14
2017-09-14T02:58:34.350Z,13.10
2017-09-14T02:59:34.346Z,13.10
2017-09-14T03:00:34.346Z,13.17
2017-09-14T03:01:34.343Z,13.10
2017-09-14T03:02:34.340Z,13.10
2017-09-14T03:03:34.337Z,13.16
2017-09-14T03:04:34.333Z,13.13
2017-09-14T03:05:34.331Z,13.13
2017-09-14T03:06:34.327Z,13.12
2017-09-14T03:07:34.323Z,13.10
2017-09-14T03:08:34.315Z,13.14
2017-09-14T03:09:34.312Z,13.14
2017-09-14T03:10:34.307Z,13.09
2017-09-14T03:11:34.305Z,13.12
2017-09-14T03:12:34.302Z,13.13
2017-09-14T03:13:34.297Z,13.10
2017-09-14T03:14:34.295Z,13.12
2017-09-14T03:15:34.290Z,13.13
2017-09-14T03:16:34.292Z,13.10
2017-09-14T03:17:34.287Z,13.10
2017-09-14T03:18:34.286Z,13.12
2017-09-14T03:19:34.282Z,13.09
2017-09-14T03:20:34.278Z,13.07
2017-09-14T03:21:34.274Z,13.01
2017-09-14T03:22:34.271Z,13.04
2017-09-14T03:23:34.268Z,12.99
2017-09-14T03:24:34.259Z,13.04
2017-09-14T03:25:34.257Z,13.03
2017-09-14T03:26:34.254Z,13.01
2017-09-14T03:27:34.254Z,12.98
2017-09-14T03:28:34.251Z,12.96
2017-09-14T03:29:34.242Z,12.99
2017-09-14T03:30:34.242Z,13.03
2017-09-14T03:31:34.240Z,13.09
2017-09-14T03:32:34.236Z,13.07
2017-09-14T03:33:34.235Z,13.06
2017-09-14T03:34:34.230Z,13.16
2017-09-14T03:35:34.230Z,13.04
2017-09-14T03:36:34.223Z,13.09
2017-09-14T03:37:34.219Z,13.07
2017-09-14T03:38:34.217Z,13.07
2017-09-14T03:39:34.212Z,13.01
2017-09-14T03:40:34.206Z,12.96
2017-09-14T03:41:34.205Z,12.94
2017-09-14T03:42:34.198Z,12.96
2017-09-14T03:43:34.196Z,12.91
2017-09-14T03:44:34.192Z,12.95
2017-09-14T03:45:34.189Z,12.92
2017-09-14T03:46:34.185Z,12.95
2017-09-14T03:47:34.187Z,12.91
2017-09-14T03:48:34.183Z,12.92
2017-09-14T03:49:34.180Z,12.87
2017-09-14T03:50:34.176Z,12.88
2017-09-14T03:51:34.171Z,12.81
2017-09-14T03:52:34.167Z,12.77
2017-09-14T03:53:34.165Z,12.77
2017-09-14T03:54:34.163Z,12.76
2017-09-14T03:55:34.160Z,12.74
2017-09-14T03:56:34.151Z,12.77
2017-09-14T03:57:34.152Z,12.80
2017-09-14T03:58:34.143Z,12.79
2017-09-14T03:59:34.139Z,12.81
2017-09-14T04:00:34.136Z,12.74
2017-09-14T04:01:34.134Z,12.77
2017-09-14T04:02:34.130Z,12.77
2017-09-14T04:03:34.127Z,12.76
2017-09-14T04:04:34.127Z,12.77
2017-09-14T04:05:34.124Z,12.71
2017-09-14T04:06:34.120Z,12.74
2017-09-14T04:07:34.117Z,12.73
2017-09-14T04:08:34.113Z,12.67
2017-09-14T04:09:34.110Z,12.69
2017-09-14T04:10:34.106Z,12.69
2017-09-14T04:11:34.102Z,12.59
2017-09-14T04:12:34.095Z,12.74
2017-09-14T04:13:34.091Z,12.58
2017-09-14T04:14:34.092Z,12.56
2017-09-14T04:15:34.083Z,12.58
2017-09-14T04:16:34.083Z,12.56
2017-09-14T04:17:34.076Z,12.51
2017-09-14T04:18:34.074Z,12.56
2017-09-14T04:19:34.067Z,12.55
2017-09-14T04:20:34.068Z,12.62
2017-09-14T04:21:34.066Z,12.61
2017-09-14T04:22:34.062Z,12.54
2017-09-14T04:23:34.058Z,12.56
2017-09-14T04:24:34.056Z,12.59
2017-09-14T04:25:34.049Z,12.63
2017-09-14T04:26:34.046Z,12.59
2017-09-14T04:27:34.092Z,12.58
2017-09-14T04:28:34.035Z,12.71
2017-09-14T04:29:34.032Z,12.67
2017-09-14T04:30:34.028Z,12.67
2017-09-14T04:31:34.024Z,12.67
2017-09-14T04:32:34.026Z,12.74
2017-09-14T04:33:34.020Z,12.70
2017-09-14T04:34:34.017Z,12.77
2017-09-14T04:35:34.012Z,12.77
2017-09-14T04:36:34.005Z,12.77
2017-09-14T04:37:34.001Z,12.76
2017-09-14T04:38:33.999Z,12.79
2017-09-14T04:39:33.994Z,12.80
2017-09-14T04:40:33.990Z,12.80
2017-09-14T04:41:33.986Z,12.77
2017-09-14T04:42:33.984Z,12.79
2017-09-14T04:43:33.980Z,12.80
2017-09-14T04:44:33.981Z,12.88
2017-09-14T04:45:33.978Z,12.74
2017-09-14T04:46:33.973Z,12.77
2017-09-14T04:47:33.969Z,12.77
2017-09-14T04:48:33.965Z,12.80
2017-09-14T04:49:33.962Z,12.89
2017-09-14T04:50:33.959Z,12.85
2017-09-14T04:51:33.954Z,12.77
2017-09-14T04:52:33.946Z,12.81
2017-09-14T04:53:33.942Z,12.85
2017-09-14T04:54:33.939Z,12.84
2017-09-14T04:55:33.936Z,12.89
2017-09-14T04:56:33.935Z,12.88
2017-09-14T04:57:33.929Z,12.92
2017-09-14T04:58:33.926Z,12.94
2017-09-14T04:59:33.921Z,12.95
2017-09-14T05:00:33.922Z,12.92
2017-09-14T05:01:33.918Z,12.95
2017-09-14T05:02:33.916Z,12.95
2017-09-14T05:03:33.911Z,12.98
2017-09-14T05:04:33.906Z,12.99
2017-09-14T05:05:33.905Z,13.03
2017-09-14T05:06:33.901Z,13.06
2017-09-14T05:07:33.897Z,13.09
2017-09-14T05:08:33.890Z,13.07
2017-09-14T05:09:33.886Z,13.01
2017-09-14T05:10:33.882Z,13.06
2017-09-14T05:11:33.878Z,13.16
2017-09-14T05:12:33.876Z,13.10
2017-09-14T05:13:33.871Z,13.16
2017-09-14T05:14:33.869Z,13.19
2017-09-14T05:15:33.863Z,13.12
2017-09-14T05:16:33.865Z,13.07
2017-09-14T05:17:33.862Z,13.17
2017-09-14T05:18:33.861Z,13.19
2017-09-14T05:19:33.855Z,13.17
2017-09-14T05:20:33.851Z,13.17
2017-09-14T05:21:33.848Z,13.17
2017-09-14T05:22:33.844Z,13.17
2017-09-14T05:23:33.841Z,13.19
2017-09-14T05:24:33.832Z,13.19
2017-09-14T05:25:33.830Z,13.13
2017-09-14T05:26:33.828Z,13.17
2017-09-14T05:27:33.824Z,13.22
2017-09-14T05:28:33.820Z,13.16
2017-09-14T05:29:33.816Z,13.17
2017-09-14T05:30:33.813Z,13.19
2017-09-14T05:31:33.810Z,13.19
2017-09-14T05:32:33.810Z,13.17
2017-09-14T05:33:33.810Z,13.27
2017-09-14T05:34:33.802Z,13.31
2017-09-14T05:35:33.800Z,13.35
2017-09-14T05:36:33.791Z,13.27
2017-09-14T05:37:33.816Z,13.27
2017-09-14T05:38:33.785Z,13.32
2017-09-14T05:39:33.781Z,13.35
2017-09-14T05:40:33.784Z,13.35
2017-09-14T05:41:33.779Z,13.38
2017-09-14T05:42:33.776Z,13.31
2017-09-14T05:43:33.772Z,13.25
2017-09-14T05:44:33.768Z,13.39
2017-09-14T05:45:33.765Z,13.29
2017-09-14T05:46:33.763Z,13.43
2017-09-14T05:47:33.759Z,13.44
2017-09-14T05:48:33.752Z,13.48
2017-09-14T05:49:33.748Z,13.53
2017-09-14T05:50:33.746Z,13.47
2017-09-14T05:51:33.741Z,13.53
2017-09-14T05:52:33.741Z,13.55
2017-09-14T05:53:33.736Z,13.59
2017-09-14T05:54:33.733Z,13.51
2017-09-14T05:55:33.728Z,13.48
2017-09-14T05:56:33.729Z,13.57
2017-09-14T05:57:33.727Z,13.59
2017-09-14T05:58:33.725Z,13.66
2017-09-14T05:59:33.722Z,13.66
2017-09-14T06:00:33.718Z,13.61
2017-09-14T06:01:33.714Z,13.68
2017-09-14T06:02:33.718Z,13.68
2017-09-14T06:03:33.708Z,13.62
2017-09-14T06:04:33.701Z,13.69
2017-09-14T06:05:33.698Z,13.71
2017-09-14T06:06:33.694Z,13.65
2017-09-14T06:07:33.692Z,13.65
2017-09-14T06:08:33.688Z,13.65
2017-09-14T06:09:33.684Z,13.55
2017-09-14T06:10:33.683Z,13.62
2017-09-14T06:11:33.679Z,13.53
2017-09-14T06:12:33.680Z,13.62
2017-09-14T06:13:33.677Z,13.59
2017-09-14T06:14:33.676Z,13.63
2017-09-14T06:15:33.672Z,13.63
2017-09-14T06:16:33.668Z,13.62
2017-09-14T06:17:33.665Z,13.66
2017-09-14T06:18:33.662Z,13.61
2017-09-14T06:19:33.658Z,13.63
2017-09-14T06:20:33.652Z,13.62
2017-09-14T06:21:33.649Z,13.59
2017-09-14T06:22:33.647Z,13.68
2017-09-14T06:23:33.643Z,13.63
2017-09-14T06:24:33.641Z,13.62
2017-09-14T06:25:33.637Z,13.69
2017-09-14T06:26:33.634Z,13.71
2017-09-14T06:27:33.630Z,13.80
2017-09-14T06:28:33.633Z,13.84
2017-09-14T06:29:33.630Z,13.73
2017-09-14T06:30:33.626Z,13.80
2017-09-14T06:31:33.622Z,13.84
2017-09-14T06:32:33.620Z,13.75
2017-09-14T06:33:33.618Z,13.83
2017-09-14T06:34:33.623Z,13.88
2017-09-14T06:35:33.610Z,13.93
2017-09-14T06:36:33.605Z,13.98
2017-09-14T06:37:33.602Z,14.02
2017-09-14T06:38:33.600Z,14.13
2017-09-14T06:39:33.594Z,14.11
2017-09-14T06:40:33.597Z,14.20
2017-09-14T06:41:33.595Z,14.30
2017-09-14T06:42:33.591Z,14.34
2017-09-14T06:43:33.589Z,14.27
2017-09-14T06:44:33.583Z,14.21
2017-09-14T06:45:33.580Z,14.34
2017-09-14T06:46:33.578Z,14.46
2017-09-14T06:47:33.575Z,14.69
2017-09-14T06:48:33.571Z,14.86
2017-09-14T06:49:33.571Z,14.98
2017-09-14T06:50:33.568Z,15.13
2017-09-14T06:51:33.566Z,15.16
2017-09-14T06:52:33.568Z,14.98
2017-09-14T06:53:33.565Z,15.01
2017-09-14T06:54:33.566Z,15.05
2017-09-14T06:55:33.560Z,15.15
2017-09-14T06:56:33.559Z,15.18
2017-09-14T06:57:33.557Z,15.34
2017-09-14T06:58:33.556Z,15.16
2017-09-14T06:59:33.553Z,15.13
2017-09-14T07:00:33.547Z,15.16
2017-09-14T07:01:33.546Z,14.71
2017-09-14T07:02:33.544Z,14.75
2017-09-14T07:03:33.548Z,14.74
2017-09-14T07:04:33.540Z,14.72
2017-09-14T07:05:33.539Z,14.69
2017-09-14T07:06:33.538Z,14.69
2017-09-14T07:07:33.534Z,14.66
2017-09-14T07:08:33.537Z,14.67
2017-09-14T07:09:33.536Z,14.64
2017-09-14T07:10:33.536Z,14.61
2017-09-14T07:11:33.531Z,14.60
2017-09-14T07:12:33.539Z,14.52
2017-09-14T07:13:33.530Z,14.56
2017-09-14T07:14:33.528Z,14.49
2017-09-14T07:15:33.524Z,14.48
2017-09-14T07:16:33.520Z,14.36
2017-09-14T07:17:33.518Z,14.30
2017-09-14T07:18:33.516Z,14.38
2017-09-14T07:19:33.514Z,14.29
2017-09-14T07:20:33.512Z,14.21
2017-09-14T07:21:33.510Z,14.27
2017-09-14T07:22:33.507Z,14.16
2017-09-14T07:23:33.504Z,14.24
2017-09-14T07:24:33.507Z,14.27
2017-09-14T07:25:33.506Z,14.13
2017-09-14T07:26:33.503Z,14.13
2017-09-14T07:27:33.501Z,14.13
2017-09-14T07:28:33.499Z,14.11
2017-09-14T07:29:33.496Z,14.12
2017-09-14T07:30:33.495Z,14.04
2017-09-14T07:31:33.491Z,14.11
2017-09-14T07:32:33.486Z,14.21
2017-09-14T07:33:33.483Z,14.23
2017-09-14T07:34:33.482Z,14.17
2017-09-14T07:35:33.478Z,14.26
2017-09-14T07:36:33.476Z,14.24
2017-09-14T07:37:33.476Z,14.42
2017-09-14T07:38:33.473Z,14.56
2017-09-14T07:39:33.471Z,14.46
2017-09-14T07:40:33.472Z,14.59
2017-09-14T07:41:33.470Z,14.66
2017-09-14T07:42:33.469Z,14.67
2017-09-14T07:43:33.466Z,14.69
2017-09-14T07:44:33.458Z,14.82
2017-09-14T07:45:33.460Z,14.93
2017-09-14T07:46:33.455Z,14.91
2017-09-14T07:47:33.453Z,14.80
2017-09-14T07:48:33.456Z,14.78
2017-09-14T07:49:33.456Z,14.79
2017-09-14T07:50:33.453Z,14.61
2017-09-14T07:51:33.450Z,14.80
2017-09-14T07:52:33.448Z,14.63
2017-09-14T07:53:33.446Z,14.56
2017-09-14T07:54:33.445Z,14.60
2017-09-14T07:55:33.443Z,14.59
2017-09-14T07:56:33.436Z,14.67
2017-09-14T07:57:33.435Z,14.74
2017-09-14T07:58:33.433Z,14.61
2017-09-14T07:59:33.445Z,14.67
2017-09-14T08:00:33.430Z,14.71
2017-09-14T08:01:33.428Z,14.60
2017-09-14T08:02:33.426Z,14.52
2017-09-14T08:03:33.423Z,14.71
2017-09-14T08:04:33.426Z,14.83
2017-09-14T08:05:33.426Z,15.03
2017-09-14T08:06:33.422Z,15.22
2017-09-14T08:07:33.420Z,15.22
2017-09-14T08:08:33.419Z,15.19
2017-09-14T08:09:33.417Z,15.33
2017-09-14T08:10:33.420Z,15.35
2017-09-14T08:11:33.413Z,15.49
2017-09-14T08:12:33.408Z,15.46
2017-09-14T08:13:33.407Z,15.46
2017-09-14T08:14:33.406Z,15.40
2017-09-14T08:15:33.407Z,15.46
2017-09-14T08:16:33.403Z,15.34
2017-09-14T08:17:33.404Z,15.33
2017-09-14T08:18:33.401Z,15.35
2017-09-14T08:19:33.397Z,15.35
2017-09-14T08:20:33.402Z,15.37
2017-09-14T08:21:33.400Z,15.46
2017-09-14T08:22:33.399Z,15.44
2017-09-14T08:23:33.399Z,15.49
2017-09-14T08:24:33.396Z,15.52
2017-09-14T08:25:33.395Z,15.68
2017-09-14T08:26:33.396Z,15.71
2017-09-14T08:27:33.392Z,15.71
2017-09-14T08:28:33.387Z,15.84
2017-09-14T08:29:33.387Z,16.03
2017-09-14T08:30:33.390Z,15.77
2017-09-14T08:31:33.384Z,15.85
2017-09-14T08:32:33.383Z,15.84
2017-09-14T08:33:33.383Z,15.78
2017-09-14T08:34:33.381Z,15.78
2017-09-14T08:35:33.380Z,15.73
2017-09-14T08:36:33.385Z,15.70
2017-09-14T08:37:33.383Z,15.60
2017-09-14T08:38:33.383Z,15.67
2017-09-14T08:39:33.381Z,15.58
2017-09-14T08:40:33.380Z,15.55
2017-09-14T08:41:33.380Z,15.66
2017-09-14T08:42:33.380Z,15.60
2017-09-14T08:43:33.400Z,15.68
2017-09-14T08:44:33.373Z,15.80
2017-09-14T08:45:33.372Z,15.78
2017-09-14T08:46:33.381Z,15.81
2017-09-14T08:47:33.372Z,15.85
2017-09-14T08:48:33.373Z,15.73
2017-09-14T08:49:33.373Z,15.88
2017-09-14T08:50:33.372Z,16.23
2017-09-14T08:51:33.371Z,16.42
2017-09-14T08:52:33.366Z,16.42
2017-09-14T08:53:33.366Z,16.51
2017-09-14T08:54:33.366Z,16.59
2017-09-14T08:55:33.364Z,16.85
2017-09-14T08:56:33.390Z,17.24
2017-09-14T08:57:33.363Z,17.25
2017-09-14T08:58:33.363Z,17.35
2017-09-14T08:59:33.363Z,19.78
2017-09-14T09:00:33.369Z,19.55
2017-09-14T09:01:33.365Z,19.02
2017-09-14T09:02:33.368Z,18.69
2017-09-14T09:03:33.372Z,18.50
2017-09-14T09:04:33.367Z,18.65
2017-09-14T09:05:33.367Z,19.07
2017-09-14T09:06:33.370Z,20.15
2017-09-14T09:07:33.369Z,22.12
2017-09-14T09:08:33.366Z,22.63
2017-09-14T09:09:33.369Z,23.35
2017-09-14T09:10:33.370Z,22.66
2017-09-14T09:11:33.372Z,23.50
2017-09-14T09:12:33.375Z,24.92
2017-09-14T09:13:33.378Z,25.94
2017-09-14T09:14:33.382Z,24.61
2017-09-14T09:15:33.386Z,23.69
2017-09-14T09:16:33.395Z,22.82
2017-09-14T09:17:33.398Z,23.15
2017-09-14T09:18:33.404Z,22.69
2017-09-14T09:19:33.409Z,22.70
2017-09-14T09:20:33.414Z,21.74
2017-09-14T09:21:33.418Z,21.77
2017-09-14T09:22:33.425Z,21.63
2017-09-14T09:23:33.429Z,21.61
2017-09-14T09:24:33.429Z,20.68
2017-09-14T09:25:33.436Z,20.16
2017-09-14T09:26:33.441Z,20.41
2017-09-14T09:27:33.447Z,20.02
2017-09-14T09:28:33.455Z,19.90
2017-09-14T09:29:33.455Z,19.75
2017-09-14T09:30:33.461Z,19.21
2017-09-14T09:31:33.466Z,19.01
2017-09-14T09:32:33.474Z,18.69
2017-09-14T09:33:33.480Z,18.51
2017-09-14T09:34:33.484Z,18.21
2017-09-14T09:35:33.486Z,17.80
2017-09-14T09:36:33.489Z,17.62
2017-09-14T09:37:33.495Z,17.24
2017-09-14T09:38:33.499Z,16.87
2017-09-14T09:39:33.500Z,16.84
2017-09-14T09:40:33.500Z,16.63
2017-09-14T09:41:33.502Z,16.51
2017-09-14T09:42:33.505Z,16.03
2017-09-14T09:43:33.507Z,15.67
2017-09-14T09:44:33.510Z,15.44
2017-09-14T09:45:33.512Z,15.33
2017-09-14T09:46:33.513Z,14.97
2017-09-14T09:47:33.513Z,14.85
2017-09-14T09:48:33.522Z,14.66
2017-09-14T09:49:33.522Z,14.56
2017-09-14T09:50:33.524Z,14.56
2017-09-14T09:51:33.522Z,14.39
2017-09-14T09:52:33.519Z,14.12
2017-09-14T09:53:33.521Z,14.01
2017-09-14T09:54:33.543Z,14.06
2017-09-14T09:55:33.518Z,14.06
2017-09-14T09:56:33.523Z,14.01
2017-09-14T09:57:33.524Z,13.93
2017-09-14T09:58:33.530Z,13.96
2017-09-14T09:59:33.522Z,13.94
2017-09-14T10:00:33.522Z,13.96
2017-09-14T10:01:33.521Z,13.94
2017-09-14T10:02:33.522Z,14.01
2017-09-14T10:03:33.521Z,13.99
2017-09-14T10:04:33.516Z,14.12
2017-09-14T10:05:33.514Z,14.24
2017-09-14T10:06:33.515Z,14.42
2017-09-14T10:07:33.512Z,14.72
2017-09-14T10:08:33.522Z,14.93
2017-09-14T10:09:33.511Z,15.11
2017-09-14T10:10:33.511Z,15.13
2017-09-14T10:11:33.507Z,15.16
2017-09-14T10:12:33.510Z,15.04
2017-09-14T10:13:33.513Z,15.37
2017-09-14T10:14:33.510Z,15.96
2017-09-14T10:15:33.507Z,16.81
2017-09-14T10:16:33.506Z,19.32
2017-09-14T10:17:33.506Z,20.81
2017-09-14T10:18:33.505Z,22.61
2017-09-14T10:19:33.505Z,24.00
2017-09-14T10:20:33.502Z,25.05
2017-09-14T10:21:33.503Z,25.57
2017-09-14T10:22:33.504Z,25.82
2017-09-14T10:23:33.507Z,25.75
2017-09-14T10:24:33.536Z,26.06
2017-09-14T10:25:33.514Z,25.16
2017-09-14T10:26:33.518Z,24.33
2017-09-14T10:27:33.521Z,23.71
2017-09-14T10:28:33.530Z,22.75
2017-09-14T10:29:33.539Z,22.17
2017-09-14T10:30:33.542Z,21.70
2017-09-14T10:31:33.546Z,21.52
2017-09-14T10:32:33.551Z,20.94
2017-09-14T10:33:33.563Z,20.93
2017-09-14T10:34:33.562Z,20.58
2017-09-14T10:35:33.567Z,20.61
2017-09-14T10:36:33.569Z,20.15
2017-09-14T10:37:33.573Z,20.12
2017-09-14T10:38:33.579Z,20.00
2017-09-14T10:39:33.583Z,19.92
2017-09-14T10:40:33.588Z,21.18
2017-09-14T10:41:33.593Z,22.17
2017-09-14T10:42:33.597Z,23.15
2017-09-14T10:43:33.603Z,23.89
2017-09-14T10:44:33.612Z,23.42
2017-09-14T10:45:33.619Z,22.45
2017-09-14T10:46:33.621Z,21.96
2017-09-14T10:47:33.628Z,21.31
2017-09-14T10:48:33.636Z,20.90
2017-09-14T10:49:33.640Z,20.46
2017-09-14T10:50:33.645Z,19.67
2017-09-14T10:51:33.649Z,19.65
2017-09-14T10:52:33.650Z,20.12
2017-09-14T10:53:33.660Z,21.40
2017-09-14T10:54:33.662Z,22.06
2017-09-14T10:55:33.666Z,21.82
2017-09-14T10:56:33.676Z,21.38
2017-09-14T10:57:33.682Z,22.20
2017-09-14T10:58:33.687Z,23.19
2017-09-14T10:59:33.692Z,22.12
2017-09-14T11:00:33.694Z,23.47
2017-09-14T11:01:33.701Z,23.90
2017-09-14T11:02:33.706Z,23.09
2017-09-14T11:03:33.712Z,22.09
2017-09-14T11:04:33.716Z,21.33
2017-09-14T11:05:33.724Z,20.07
2017-09-14T11:06:33.736Z,20.13
2017-09-14T11:07:33.736Z,21.52
2017-09-14T11:08:33.745Z,20.82
2017-09-14T11:09:33.752Z,20.34
2017-09-14T11:10:33.757Z,19.98
2017-09-14T11:11:33.763Z,19.82
2017-09-14T11:12:33.770Z,19.80
2017-09-14T11:13:33.777Z,19.64
2017-09-14T11:14:33.781Z,19.57
2017-09-14T11:15:33.786Z,19.27
2017-09-14T11:16:33.788Z,19.09
2017-09-14T11:17:33.792Z,18.99
2017-09-14T11:18:33.799Z,18.89
2017-09-14T11:19:33.801Z,18.84
2017-09-14T11:20:33.807Z,18.50
2017-09-14T11:21:33.812Z,18.21
2017-09-14T11:22:33.815Z,18.16
2017-09-14T11:23:33.820Z,18.11
2017-09-14T11:24:33.828Z,17.86
2017-09-14T11:25:33.831Z,17.49
2017-09-14T11:26:33.901Z,17.30
2017-09-14T11:27:33.909Z,17.14
2017-09-14T11:28:33.849Z,16.66
2017-09-14T11:29:33.853Z,15.93
2017-09-14T11:30:33.859Z,15.62
2017-09-14T11:31:33.856Z,15.44
2017-09-14T11:32:33.852Z,15.13
2017-09-14T11:33:33.847Z,15.12
2017-09-14T11:34:33.850Z,14.90
2017-09-14T11:35:33.850Z,14.80
2017-09-14T11:36:33.856Z,14.67
2017-09-14T11:37:33.853Z,14.53
2017-09-14T11:38:33.853Z,14.52
2017-09-14T11:39:33.855Z,14.39
2017-09-14T11:40:33.859Z,14.57
2017-09-14T11:41:33.859Z,14.71
2017-09-14T11:42:33.860Z,14.98
2017-09-14T11:43:33.858Z,15.31
2017-09-14T11:44:33.859Z,15.73
2017-09-14T11:45:33.860Z,16.14
2017-09-14T11:46:33.859Z,16.54
2017-09-14T11:47:33.861Z,16.87
2017-09-14T11:48:33.854Z,16.95
2017-09-14T11:49:33.855Z,17.12
2017-09-14T11:50:33.855Z,17.40
2017-09-14T11:51:33.855Z,17.68
2017-09-14T11:52:33.856Z,17.79
2017-09-14T11:53:33.857Z,18.10
2017-09-14T11:54:33.857Z,18.20
2017-09-14T11:55:33.857Z,18.29
2017-09-14T11:56:33.860Z,18.19
2017-09-14T11:57:33.863Z,18.16
2017-09-14T11:58:33.863Z,17.87
2017-09-14T11:59:33.863Z,17.76
2017-09-14T12:00:33.864Z,17.83
2017-09-14T12:01:33.865Z,17.57
2017-09-14T12:02:33.867Z,17.53
2017-09-14T12:03:33.872Z,17.40
2017-09-14T12:04:33.863Z,17.17
2017-09-14T12:05:33.864Z,16.95
2017-09-14T12:06:33.864Z,16.80
2017-09-14T12:07:33.863Z,16.60
2017-09-14T12:08:33.864Z,16.25
2017-09-14T12:09:33.865Z,15.74
2017-09-14T12:10:33.867Z,15.67
2017-09-14T12:11:33.866Z,15.68
2017-09-14T12:12:33.870Z,15.74
2017-09-14T12:13:33.870Z,15.84
2017-09-14T12:14:33.870Z,15.99
2017-09-14T12:15:33.871Z,16.22
2017-09-14T12:16:33.869Z,16.03
2017-09-14T12:17:33.870Z,16.13
2017-09-14T12:18:33.871Z,16.14
2017-09-14T12:19:33.870Z,16.11
2017-09-14T12:20:33.869Z,15.96
2017-09-14T12:21:33.865Z,15.80
2017-09-14T12:22:33.866Z,15.84
2017-09-14T12:23:33.868Z,15.70
2017-09-14T12:24:33.866Z,15.59
2017-09-14T12:25:33.865Z,15.56
2017-09-14T12:26:33.868Z,15.34
2017-09-14T12:27:33.864Z,15.55
2017-09-14T12:28:33.869Z,15.70
2017-09-14T12:29:33.867Z,15.92
2017-09-14T12:30:33.868Z,15.95
2017-09-14T12:31:33.866Z,16.22
2017-09-14T12:32:33.865Z,16.32
2017-09-14T12:33:33.866Z,16.22
2017-09-14T12:34:33.865Z,16.18
2017-09-14T12:35:33.865Z,16.11
2017-09-14T12:36:33.860Z,16.11
2017-09-14T12:37:33.860Z,16.36
2017-09-14T12:38:33.862Z,16.37
2017-09-14T12:39:33.860Z,16.52
2017-09-14T12:40:33.858Z,16.62
2017-09-14T12:41:33.858Z,16.65
2017-09-14T12:42:33.857Z,16.78
2017-09-14T12:43:33.856Z,16.73
2017-09-14T12:44:33.860Z,16.66
2017-09-14T12:45:33.860Z,16.63
2017-09-14T12:46:33.860Z,16.72
2017-09-14T12:47:33.859Z,16.60
2017-09-14T12:48:33.859Z,16.57
2017-09-14T12:49:33.858Z,16.75
2017-09-14T12:50:33.858Z,16.57
2017-09-14T12:51:33.855Z,16.54
2017-09-14T12:52:33.852Z,16.63